^^
B2 Weather Station Historical Data
Daily Summary for December 30, 2018 Units:  English    Metric   Both
Daily Weekly Monthly Yearly Custom
  High: Low: Average:
Temperature: 36.6 °F 17.4 °F 27.9 °F
Dew Point: 30.1 °F 14.6 °F 24 °F
Humidity: 92% 71% 85%
Wind Speed: 18.4mph 0mph 7.5mph
Wind Gust: 10mph - -
Wind- - SW
Pressure: 30.24 in 30.00 in -
Precipitation: 0 in    
Historical Graphs
 
 
Tabular Data for December 30, 2018
Time Temperature Dew Point Pressure Wind Wind Speed Wind Gust Humidity Rainfall Rate (Hourly) solar
00:04 24 °F 20.1 °F 30.24 in WSW 11.5 mph 6.8 mph 85% 0 in 0.00 W/m2
00:09 24 °F 20.1 °F 30.24 in SW 6.9 mph 6.4 mph 85% 0 in 0.00 W/m2
00:14 23.8 °F 19.9 °F 30.24 in SW 15 mph 8.2 mph 85% 0 in 0.00 W/m2
00:19 23.8 °F 19.9 °F 30.24 in WSW 13 mph 7.5 mph 85% 0 in 0.00 W/m2
00:24 23.8 °F 19.9 °F 30.24 in SW 16.1 mph 7.8 mph 85% 0 in 0.00 W/m2
00:29 23.8 °F 19.9 °F 30.24 in North 10.4 mph 6.7 mph 85% 0 in 0.00 W/m2
00:34 23.8 °F 19.9 °F 30.24 in WSW 10.4 mph 6.9 mph 85% 0 in 0.00 W/m2
00:39 23.7 °F 19.6 °F 30.24 in SSW 10.4 mph 5.3 mph 84% 0 in 0.00 W/m2
00:44 23.6 °F 19.5 °F 30.24 in WSW 10.4 mph 8.2 mph 84% 0 in 0.00 W/m2
00:49 23.6 °F 19.5 °F 30.24 in North 11.5 mph 6 mph 84% 0 in 0.00 W/m2
00:54 23.4 °F 19.3 °F 30.24 in SSW 10.4 mph 6.9 mph 84% 0 in 0.00 W/m2
00:59 23.3 °F 19.2 °F 30.23 in SSE 11.5 mph 5.9 mph 84% 0 in 0.00 W/m2
01:04 23.1 °F 19 °F 30.23 in SW 11.5 mph 6.2 mph 84% 0 in 0.00 W/m2
01:09 23.1 °F 19.3 °F 30.22 in WSW 9.2 mph 4.7 mph 85% 0 in 0.00 W/m2
01:14 23.2 °F 19.4 °F 30.22 in SW 9.2 mph 6.3 mph 85% 0 in 0.00 W/m2
01:19 23 °F 19.2 °F 30.23 in North 12.7 mph 6.4 mph 85% 0 in 0.00 W/m2
01:24 22.9 °F 19.1 °F 30.23 in North 9.2 mph 6.3 mph 85% 0 in 0.00 W/m2
01:29 22.9 °F 19.1 °F 30.23 in SW 6.9 mph 5.8 mph 85% 0 in 0.00 W/m2
01:34 23 °F 19.2 °F 30.23 in SW 10.4 mph 4.9 mph 85% 0 in 0.00 W/m2
01:39 23 °F 19.2 °F 30.23 in SW 9.2 mph 4.5 mph 85% 0 in 0.00 W/m2
01:44 22.9 °F 19.1 °F 30.23 in WSW 10.4 mph 3.6 mph 85% 0 in 0.00 W/m2
01:49 22.9 °F 19.1 °F 30.23 in SW 5.8 mph 3.5 mph 85% 0 in 0.00 W/m2
01:54 22.9 °F 19.1 °F 30.23 in SW 5.8 mph 3 mph 85% 0 in 0.00 W/m2
01:59 23 °F 19.2 °F 30.23 in SSW 6 mph 4.4 mph 85% 0 in 0.00 W/m2
02:04 22.9 °F 18.8 °F 30.23 in North 6 mph 3.5 mph 84% 0 in 0.00 W/m2
02:09 22.9 °F 18.8 °F 30.23 in North 9.2 mph 5 mph 84% 0 in 0.00 W/m2
02:14 22.8 °F 18.7 °F 30.23 in North 12.7 mph 9 mph 84% 0 in 0.00 W/m2
02:19 22.6 °F 18.5 °F 30.23 in North 11.5 mph 7.5 mph 84% 0 in 0.00 W/m2
02:24 22.5 °F 18.4 °F 30.23 in North 9 mph 4.5 mph 84% 0 in 0.00 W/m2
02:29 22.5 °F 18.4 °F 30.23 in WSW 9.2 mph 5.8 mph 84% 0 in 0.00 W/m2
02:34 22.4 °F 18.3 °F 30.23 in North 9.2 mph 4.8 mph 84% 0 in 0.00 W/m2
02:39 22.3 °F 18.2 °F 30.23 in SSW 15 mph 8.8 mph 84% 0 in 0.00 W/m2
02:44 22.2 °F 18.4 °F 30.23 in SSW 11.5 mph 6 mph 85% 0 in 0.00 W/m2
02:49 22.1 °F 18 °F 30.23 in North 11.5 mph 6.3 mph 84% 0 in 0.00 W/m2
02:54 22 °F 18.2 °F 30.23 in WSW 12.7 mph 7.2 mph 85% 0 in 0.00 W/m2
02:59 21.9 °F 18.1 °F 30.23 in SW 5.8 mph 3.7 mph 85% 0 in 0.00 W/m2
03:04 21.8 °F 18 °F 30.23 in North 12.7 mph 6.8 mph 85% 0 in 0.00 W/m2
03:09 21.7 °F 17.9 °F 30.23 in SW 5.8 mph 3.5 mph 85% 0 in 0.00 W/m2
03:14 21.6 °F 18.1 °F 30.23 in WSW 6.9 mph 4 mph 86% 0 in 0.00 W/m2
03:19 21.5 °F 18 °F 30.22 in SW 4.6 mph 2.1 mph 86% 0 in 0.00 W/m2
03:24 21.5 °F 18 °F 30.22 in SW 6.9 mph 1.2 mph 86% 0 in 0.00 W/m2
03:29 21.4 °F 17.9 °F 30.22 in WSW 4.6 mph 2.2 mph 86% 0 in 0.00 W/m2
03:34 21.3 °F 17.8 °F 30.21 in South 6 mph 1.2 mph 86% 0 in 0.00 W/m2
03:39 21.1 °F 17.8 °F 30.22 in SW 5.8 mph 3.3 mph 87% 0 in 0.00 W/m2
03:44 21 °F 17.7 °F 30.21 in SW 4 mph 3.7 mph 87% 0 in 0.00 W/m2
03:49 20.9 °F 17.6 °F 30.20 in WSW 4.6 mph 1.9 mph 87% 0 in 0.00 W/m2
03:54 20.7 °F 17.4 °F 30.21 in South 5 mph 3.1 mph 87% 0 in 0.00 W/m2
03:59 20.6 °F 17.3 °F 30.20 in WSW 4 mph 2.7 mph 87% 0 in 0.00 W/m2
04:04 20.5 °F 17.5 °F 30.20 in SW 3.5 mph 2.9 mph 88% 0 in 0.00 W/m2
04:09 20.4 °F 17.4 °F 30.20 in SW 2.3 mph 1.9 mph 88% 0 in 0.00 W/m2
04:14 20.3 °F 17.3 °F 30.19 in SSW 3.5 mph 0.9 mph 88% 0 in 0.00 W/m2
04:19 20.2 °F 17 °F 30.19 in SSW 3.5 mph 2.5 mph 87% 0 in 0.00 W/m2
04:24 20 °F 17 °F 30.19 in SW 1.2 mph 0.2 mph 88% 0 in 0.00 W/m2
04:29 19.9 °F 16.9 °F 30.18 in SW 2.3 mph 0.4 mph 88% 0 in 0.00 W/m2
04:34 19.8 °F 16.8 °F 30.19 in SSW 2.3 mph 0.1 mph 88% 0 in 0.00 W/m2
04:39 19.7 °F 16.7 °F 30.19 in SSW 1.2 mph 0.3 mph 88% 0 in 0.00 W/m2
04:44 19.6 °F 16.6 °F 30.19 in SSW 3.5 mph 1.3 mph 88% 0 in 0.00 W/m2
04:49 19.6 °F 16.9 °F 30.19 in SW 3.5 mph 1.7 mph 89% 0 in 0.00 W/m2
04:54 19.6 °F 16.9 °F 30.19 in SW 3.5 mph 1.3 mph 89% 0 in 0.00 W/m2
04:59 19.6 °F 16.9 °F 30.19 in SW 2.3 mph 1.3 mph 89% 0 in 0.00 W/m2
05:04 19.5 °F 16.8 °F 30.20 in SW 3.5 mph 0.8 mph 89% 0 in 0.00 W/m2
05:09 19.5 °F 16.8 °F 30.20 in SW 2.3 mph 0.6 mph 89% 0 in 0.00 W/m2
05:14 19.5 °F 16.8 °F 30.20 in SW 3.5 mph 1.9 mph 89% 0 in 0.00 W/m2
05:19 19.4 °F 16.7 °F 30.20 in Calm     89% 0 in 0.00 W/m2
05:24 19.2 °F 16.2 °F 30.20 in SSW 1.2 mph 0.4 mph 88% 0 in 0.00 W/m2
05:29 19.1 °F 16.1 °F 30.20 in SSW 1.2 mph   88% 0 in 0.00 W/m2
05:34 19 °F 16 °F 30.20 in SSW 1 mph 0.1 mph 88% 0 in 0.00 W/m2
05:39 18.9 °F 15.9 °F 30.20 in SSW 2.3 mph 0.4 mph 88% 0 in 0.00 W/m2
05:44 18.8 °F 15.8 °F 30.20 in SSW 1.2 mph 0.3 mph 88% 0 in 0.00 W/m2
05:49 18.8 °F 15.8 °F 30.20 in SSW 2.3 mph   88% 0 in 0.00 W/m2
05:54 18.7 °F 15.7 °F 30.20 in SSW 3 mph 0.6 mph 88% 0 in 0.00 W/m2
05:59 18.7 °F 16 °F 30.20 in SSW 2.3 mph 0.1 mph 89% 0 in 0.00 W/m2
06:04 18.7 °F 16 °F 30.20 in Calm     89% 0 in 0.00 W/m2
06:09 18.6 °F 15.9 °F 30.20 in Calm     89% 0 in 0.00 W/m2
06:14 18.6 °F 15.9 °F 30.20 in SSW 1.2 mph   89% 0 in 0.00 W/m2
06:19 18.5 °F 15.8 °F 30.20 in Calm     89% 0 in 0.00 W/m2
06:24 18.5 °F 15.8 °F 30.20 in Calm     89% 0 in 0.00 W/m2
06:29 18.4 °F 15.4 °F 30.20 in Calm     88% 0 in 0.00 W/m2
06:34 18.2 °F 15.2 °F 30.20 in Calm     88% 0 in 0.00 W/m2
06:39 17.9 °F 14.9 °F 30.19 in SSW 2.3 mph 1 mph 88% 0 in 0.00 W/m2
06:44 17.6 °F 14.7 °F 30.20 in SSW 1.2 mph   88% 0 in 0.00 W/m2
06:49 17.5 °F 14.6 °F 30.19 in Calm     88% 0 in 0.00 W/m2
06:54 17.5 °F 14.8 °F 30.19 in Calm   0.4 mph 89% 0 in 0.00 W/m2
06:59 17.4 °F 14.7 °F 30.20 in Calm     89% 0 in 0.00 W/m2
07:04 17.5 °F 14.8 °F 30.19 in Calm     89% 0 in 0.00 W/m2
07:09 17.6 °F 14.9 °F 30.19 in SSW 2 mph 0.7 mph 89% 0 in 0.00 W/m2
07:14 17.8 °F 15.4 °F 30.19 in SSW 1.2 mph 0.2 mph 90% 0 in 0.00 W/m2
07:19 17.9 °F 15.5 °F 30.19 in SSW 3.5 mph 1.3 mph 90% 0 in 0.00 W/m2
07:24 18.1 °F 15.7 °F 30.19 in South 3.5 mph 0.3 mph 90% 0 in 7.00 W/m2
07:29 18.3 °F 15.9 °F 30.19 in South 3.5 mph 1.9 mph 90% 0 in 9.00 W/m2
07:34 18.5 °F 16.3 °F 30.19 in South 3.5 mph 1.7 mph 91% 0 in 12.00 W/m2
07:39 18.7 °F 16.5 °F 30.19 in SSW 3.5 mph 1 mph 91% 0 in 19.00 W/m2
07:44 19.2 °F 17 °F 30.18 in South 2.3 mph 1.3 mph 91% 0 in 28.00 W/m2
07:49 19.7 °F 17.5 °F 30.19 in SSW 5 mph 2.1 mph 91% 0 in 42.00 W/m2
07:54 20.1 °F 17.9 °F 30.19 in SSW 4.6 mph 0.8 mph 91% 0 in 54.00 W/m2
07:59 20.5 °F 18.3 °F 30.19 in South 2.3 mph 0.6 mph 91% 0 in 69.00 W/m2
08:04 20.8 °F 18.6 °F 30.19 in South 6 mph 2.4 mph 91% 0 in 83.00 W/m2
08:09 21.1 °F 18.9 °F 30.19 in SSW 2.3 mph 2 mph 91% 0 in 88.00 W/m2
08:14 21.4 °F 19.2 °F 30.19 in South 4.6 mph 3.3 mph 91% 0 in 109.00 W/m2
08:19 21.7 °F 19.2 °F 30.18 in SSW 4.6 mph 3 mph 90% 0 in 123.00 W/m2
08:24 22 °F 19.5 °F 30.18 in South 4.6 mph 3.2 mph 90% 0 in 139.00 W/m2
08:29 22.2 °F 19.7 °F 30.18 in South 6.9 mph 3.9 mph 90% 0 in 155.00 W/m2
08:34 22.5 °F 20 °F 30.18 in SSW 9.2 mph 3.9 mph 90% 0 in 171.00 W/m2
08:39 22.8 °F 20.3 °F 30.18 in South 5.8 mph 3.8 mph 90% 0 in 186.00 W/m2
08:44 23.1 °F 20.6 °F 30.18 in South 6.9 mph 4.2 mph 90% 0 in 200.00 W/m2
08:49 23.5 °F 21 °F 30.18 in South 6.9 mph 4.1 mph 90% 0 in 216.00 W/m2
08:54 23.7 °F 20.9 °F 30.17 in South 9.2 mph 6.3 mph 89% 0 in 232.00 W/m2
08:59 23.7 °F 20.9 °F 30.18 in South 11.5 mph 5 mph 89% 0 in 246.00 W/m2
09:04 24.2 °F 21.4 °F 30.17 in SSW 5.8 mph 3.5 mph 89% 0 in 260.00 W/m2
09:09 24.5 °F 21.5 °F 30.17 in SSW 9.2 mph 5 mph 88% 0 in 272.00 W/m2
09:14 24.8 °F 21.8 °F 30.17 in South 8.1 mph 4.9 mph 88% 0 in 281.00 W/m2
09:19 25 °F 21.9 °F 30.17 in SSW 8.1 mph 6.7 mph 88% 0 in 290.00 W/m2
09:24 25.3 °F 22.2 °F 30.17 in South 5.8 mph 3.3 mph 88% 0 in 294.00 W/m2
09:29 25.6 °F 22.5 °F 30.16 in SSW 5.8 mph 3.8 mph 88% 0 in 302.00 W/m2
09:34 25.7 °F 22.4 °F 30.16 in SSE 10.4 mph 3.1 mph 87% 0 in 309.00 W/m2
09:39 26.1 °F 22.8 °F 30.16 in SSE 9.2 mph 4.4 mph 87% 0 in 316.00 W/m2
09:44 26.2 °F 22.3 °F 30.16 in South 10.4 mph 6.9 mph 85% 0 in 329.00 W/m2
09:49 26.4 °F 22.8 °F 30.15 in South 6.9 mph 4.5 mph 86% 0 in 325.00 W/m2
09:54 26.9 °F 23.3 °F 30.15 in South 10.4 mph 6.3 mph 86% 0 in 350.00 W/m2
09:59 27 °F 23.1 °F 30.15 in SW 11.5 mph 4.3 mph 85% 0 in 360.00 W/m2
10:04 27.1 °F 23.2 °F 30.15 in South 11.5 mph 10 mph 85% 0 in 366.00 W/m2
10:09 27.6 °F 23.4 °F 30.15 in SSE 11.5 mph 6 mph 84% 0 in 369.00 W/m2
10:14 27.8 °F 23.3 °F 30.14 in SW 8.1 mph 5.3 mph 83% 0 in 383.00 W/m2
10:19 28.1 °F 23.6 °F 30.14 in SSW 12.7 mph 7.7 mph 83% 0 in 383.00 W/m2
10:24 28.5 °F 24 °F 30.14 in South 12.7 mph 8.3 mph 83% 0 in 373.00 W/m2
10:29 28.6 °F 24.1 °F 30.14 in SSW 11.5 mph 4.1 mph 83% 0 in 403.00 W/m2
10:34 28.8 °F 24 °F 30.14 in SSE 11.5 mph 7.2 mph 82% 0 in 408.00 W/m2
10:39 29.2 °F 24.4 °F 30.14 in South 10.4 mph 7.7 mph 82% 0 in 415.00 W/m2
10:44 29.5 °F 24.4 °F 30.14 in SSW 12.7 mph 5.9 mph 81% 0 in 418.00 W/m2
10:49 30 °F 24.6 °F 30.14 in SSW 9.2 mph 5.6 mph 80% 0 in 420.00 W/m2
10:54 30.3 °F 24.6 °F 30.14 in SSW 10.4 mph 5.4 mph 79% 0 in 429.00 W/m2
10:59 30.5 °F 25.4 °F 30.13 in SSW 11.5 mph 5.4 mph 81% 0 in 432.00 W/m2
11:04 30.5 °F 25.4 °F 30.12 in SW 11.5 mph 7.6 mph 81% 0 in 432.00 W/m2
11:09 30.6 °F 25.8 °F 30.12 in SSW 7 mph 4 mph 82% 0 in 439.00 W/m2
11:14 30.9 °F 25.8 °F 30.12 in SSW 13.8 mph 9.2 mph 81% 0 in 445.00 W/m2
11:19 31.1 °F 24.7 °F 30.11 in SSE 12 mph 5.1 mph 77% 0 in 445.00 W/m2
11:24 31.4 °F 24.1 °F 30.11 in South 11.5 mph 6 mph 74% 0 in 450.00 W/m2
11:29 31.9 °F 25.2 °F 30.11 in North 11.5 mph 7 mph 76% 0 in 450.00 W/m2
11:34 31.9 °F 24.9 °F 30.11 in South 13.8 mph 6.2 mph 75% 0 in 455.00 W/m2
11:39 32.3 °F 24.9 °F 30.11 in SSW 15 mph 4.3 mph 74% 0 in 454.00 W/m2
11:44 32.6 °F 24.9 °F 30.10 in SSW 10.4 mph 3.9 mph 73% 0 in 454.00 W/m2
11:49 32.9 °F 25.5 °F 30.10 in South 8.1 mph 4.9 mph 74% 0 in 455.00 W/m2
11:54 33.5 °F 26.1 °F 30.09 in South 5.8 mph 6.1 mph 74% 0 in 455.00 W/m2
11:59 33.6 °F 25.9 °F 30.09 in South 10.4 mph 6.8 mph 73% 0 in 455.00 W/m2
12:04 33.8 °F 26.4 °F 30.09 in SSW 10.4 mph 4.7 mph 74% 0 in 455.00 W/m2
12:09 34 °F 26.6 °F 30.09 in SSW 11.5 mph 7.9 mph 74% 0 in 454.00 W/m2
12:14 34.2 °F 26.4 °F 30.09 in South 9.2 mph 8 mph 73% 0 in 454.00 W/m2
12:19 34.2 °F 26.8 °F 30.08 in SW 10.4 mph 5.2 mph 74% 0 in 450.00 W/m2
12:24 34.2 °F 26.4 °F 30.08 in South 10.4 mph 7.4 mph 73% 0 in 452.00 W/m2
12:29 34.5 °F 27.1 °F 30.08 in SSW 14 mph 7.1 mph 74% 0 in 445.00 W/m2
12:34 34.5 °F 26.7 °F 30.07 in SW 13.8 mph 6.4 mph 73% 0 in 441.00 W/m2
12:39 34.8 °F 27.4 °F 30.07 in SSW 9 mph 5.2 mph 74% 0 in 441.00 W/m2
12:44 35 °F 26.9 °F 30.07 in South 16.1 mph 4.9 mph 72% 0 in 438.00 W/m2
12:49 35.1 °F 27 °F 30.07 in North 12.7 mph 6.3 mph 72% 0 in 434.00 W/m2
12:54 35.2 °F 27.1 °F 30.07 in SSE 18.4 mph 7.2 mph 72% 0 in 427.00 W/m2
12:59 35.2 °F 27.1 °F 30.08 in SSE 5 mph 5 mph 72% 0 in 425.00 W/m2
13:04 35.5 °F 27.7 °F 30.08 in South 12.7 mph 9.1 mph 73% 0 in 417.00 W/m2
13:09 35.7 °F 27.6 °F 30.08 in North 11.5 mph 5.7 mph 72% 0 in 417.00 W/m2
13:14 35.8 °F 27.7 °F 30.07 in SSW 11.5 mph 5.4 mph 72% 0 in 410.00 W/m2
13:19 35.9 °F 27.4 °F 30.06 in SSW 13.8 mph 7.3 mph 71% 0 in 401.00 W/m2
13:24 36.1 °F 28.6 °F 30.06 in South 11.5 mph 7.8 mph 74% 0 in 394.00 W/m2
13:29 36.1 °F 28.3 °F 30.07 in South 12.7 mph 4.8 mph 73% 0 in 394.00 W/m2
13:34 36.1 °F 28.3 °F 30.06 in North 10.4 mph 4.4 mph 73% 0 in 336.00 W/m2
13:39 36.2 °F 28.7 °F 30.06 in North 11.5 mph 8.5 mph 74% 0 in 352.00 W/m2
13:44 36.2 °F 28.7 °F 30.06 in South 11.5 mph 7.8 mph 74% 0 in 345.00 W/m2
13:49 36.4 °F 29.2 °F 30.07 in SW 11.5 mph 7.1 mph 75% 0 in 294.00 W/m2
13:54 36.2 °F 28.7 °F 30.07 in SSW 12.7 mph 6.6 mph 74% 0 in 318.00 W/m2
13:59 36.2 °F 29 °F 30.07 in South 11.5 mph 8.1 mph 75% 0 in 197.00 W/m2
14:04 36.1 °F 29.3 °F 30.06 in North 9.2 mph 3.8 mph 76% 0 in 248.00 W/m2
14:09 36.3 °F 29.5 °F 30.07 in SSW 12.7 mph 3.5 mph 76% 0 in 269.00 W/m2
14:14 36.6 °F 29.4 °F 30.07 in North 12.7 mph 4.9 mph 75% 0 in 221.00 W/m2
14:19 36.5 °F 29.3 °F 30.07 in South 8.1 mph 6.9 mph 75% 0 in 276.00 W/m2
14:24 36.6 °F 29.4 °F 30.07 in SSE 11.5 mph 6.5 mph 75% 0 in 272.00 W/m2
14:29 36.6 °F 29.1 °F 30.06 in South 15 mph 6.3 mph 74% 0 in 236.00 W/m2
14:34 36.3 °F 28.5 °F 30.06 in SSW 18.4 mph 7.4 mph 73% 0 in 207.00 W/m2
14:39 36.4 °F 28.6 °F 30.07 in SW 9.2 mph 5.6 mph 73% 0 in 195.00 W/m2
14:44 36.4 °F 28.6 °F 30.07 in SW 10.4 mph 2.2 mph 73% 0 in 121.00 W/m2
14:49 36.2 °F 28.7 °F 30.06 in SSW 10.4 mph 7.2 mph 74% 0 in 151.00 W/m2
14:54 36 °F 28.8 °F 30.07 in SSW 8.1 mph 7 mph 75% 0 in 114.00 W/m2
14:59 36 °F 28.8 °F 30.07 in North 8.1 mph 3.1 mph 75% 0 in 188.00 W/m2
15:04 36.2 °F 28.7 °F 30.07 in SSW 8.1 mph 4.5 mph 74% 0 in 169.00 W/m2
15:09 36.4 °F 29.6 °F 30.08 in South 8.1 mph 5.8 mph 76% 0 in 186.00 W/m2
15:14 36.4 °F 29.9 °F 30.07 in SSE 9.2 mph 4.7 mph 77% 0 in 165.00 W/m2
15:19 36.3 °F 29.8 °F 30.07 in SSW 10 mph 4 mph 77% 0 in 158.00 W/m2
15:24 36.3 °F 29.8 °F 30.07 in South 6.9 mph 4.9 mph 77% 0 in 74.00 W/m2
15:29 36.1 °F 29.9 °F 30.07 in South 8.1 mph 5.2 mph 78% 0 in 79.00 W/m2
15:34 35.8 °F 29.9 °F 30.07 in North 10.4 mph 6.2 mph 79% 0 in 60.00 W/m2
15:39 35.6 °F 30 °F 30.07 in South 6.9 mph 5.4 mph 80% 0 in 42.00 W/m2
15:44 35.4 °F 30.1 °F 30.07 in SSE 6.9 mph 3.5 mph 81% 0 in 47.00 W/m2
15:49 35.3 °F 30.1 °F 30.07 in South 8.1 mph 4.3 mph 81% 0 in 35.00 W/m2
15:54 35.1 °F 29.9 °F 30.07 in SSE 9.2 mph 5.8 mph 81% 0 in 26.00 W/m2
15:59 35 °F 29.8 °F 30.07 in SSE 6.9 mph 6 mph 81% 0 in 25.00 W/m2
16:04 34.7 °F 29.8 °F 30.07 in North 11.5 mph 5.8 mph 82% 0 in 19.00 W/m2
16:09 34.5 °F 29.9 °F 30.08 in South 10.4 mph 5 mph 83% 0 in 14.00 W/m2
16:14 34.3 °F 29.7 °F 30.07 in North 7 mph 3.4 mph 83% 0 in 11.00 W/m2
16:19 34.2 °F 29.9 °F 30.08 in North 11.5 mph 3.6 mph 84% 0 in 7.00 W/m2
16:24 34 °F 29.7 °F 30.07 in South 9.2 mph 5.1 mph 84% 0 in 5.00 W/m2
16:29 33.9 °F 29.6 °F 30.06 in South 8.1 mph 5.4 mph 84% 0 in 0.00 W/m2
16:34 33.6 °F 29.3 °F 30.06 in SSW 9.2 mph 5.9 mph 84% 0 in 0.00 W/m2
16:39 33.5 °F 29.5 °F 30.07 in SSE 8.1 mph 5.1 mph 85% 0 in 0.00 W/m2
16:44 33.3 °F 29.3 °F 30.07 in SSE 8.1 mph 6.1 mph 85% 0 in 0.00 W/m2
16:49 33.1 °F 29.4 °F 30.07 in North 10.4 mph 6.2 mph 86% 0 in 0.00 W/m2
16:54 33 °F 29.3 °F 30.07 in North 10.4 mph 7.3 mph 86% 0 in 0.00 W/m2
16:59 33 °F 29.3 °F 30.07 in South 10.4 mph 5.5 mph 86% 0 in 0.00 W/m2
17:04 32.8 °F 29.4 °F 30.07 in North 6.9 mph 4.1 mph 87% 0 in 0.00 W/m2
17:09 32.7 °F 29.3 °F 30.07 in South 9.2 mph 5.5 mph 87% 0 in 0.00 W/m2
17:14 32.6 °F 29.2 °F 30.07 in South 6.9 mph 4.6 mph 87% 0 in 0.00 W/m2
17:19 32.5 °F 29.3 °F 30.07 in South 9.2 mph 7.4 mph 88% 0 in 0.00 W/m2
17:24 32.4 °F 29.2 °F 30.07 in North 6.9 mph 5.7 mph 88% 0 in 0.00 W/m2
17:29 32.3 °F 29.1 °F 30.07 in North 9.2 mph 5.8 mph 88% 0 in 0.00 W/m2
17:34 32.2 °F 29 °F 30.07 in North 6.9 mph 5.9 mph 88% 0 in 0.00 W/m2
17:39 32.1 °F 29.2 °F 30.07 in SSE 9.2 mph 7 mph 89% 0 in 0.00 W/m2
17:44 31.9 °F 29 °F 30.06 in SSE 8.1 mph 5.9 mph 89% 0 in 0.00 W/m2
17:49 31.7 °F 28.8 °F 30.06 in North 6.9 mph 6.1 mph 89% 0 in 0.00 W/m2
17:54 31.6 °F 29 °F 30.06 in SSE 8.1 mph 4.9 mph 90% 0 in 0.00 W/m2
17:59 31.4 °F 28.8 °F 30.06 in North 6.9 mph 4.7 mph 90% 0 in 0.00 W/m2
18:04 31.4 °F 28.8 °F 30.06 in SSE 6.9 mph 5.7 mph 90% 0 in 0.00 W/m2
18:09 31.2 °F 28.6 °F 30.06 in SSE 8.1 mph 5.6 mph 90% 0 in 0.00 W/m2
18:14 31.2 °F 28.6 °F 30.06 in South 8.1 mph 5.7 mph 90% 0 in 0.00 W/m2
18:19 31.2 °F 28.6 °F 30.07 in SSE 6.9 mph 6.4 mph 90% 0 in 0.00 W/m2
18:24 31.1 °F 28.5 °F 30.06 in North 9.2 mph 6.3 mph 90% 0 in 0.00 W/m2
18:29 31.2 °F 28.9 °F 30.06 in North 9.2 mph 6.4 mph 91% 0 in 0.00 W/m2
18:34 31.1 °F 28.8 °F 30.06 in SSE 10.4 mph 7.4 mph 91% 0 in 0.00 W/m2
18:39 31.1 °F 28.8 °F 30.07 in North 9.2 mph 6.3 mph 91% 0 in 0.00 W/m2
18:44 31.1 °F 28.8 °F 30.07 in South 10.4 mph 6 mph 91% 0 in 0.00 W/m2
18:49 31.1 °F 28.8 °F 30.06 in South 9.2 mph 7.1 mph 91% 0 in 0.00 W/m2
18:54 31 °F 28.7 °F 30.06 in North 11.5 mph 6.8 mph 91% 0 in 0.00 W/m2
18:59 31 °F 28.7 °F 30.06 in SSE 9.2 mph 6.7 mph 91% 0 in 0.00 W/m2
19:04 31 °F 28.7 °F 30.06 in South 10.4 mph 6.9 mph 91% 0 in 0.00 W/m2
19:09 31 °F 28.7 °F 30.06 in SSE 10.4 mph 7.1 mph 91% 0 in 0.00 W/m2
19:14 31 °F 28.7 °F 30.06 in North 9.2 mph 6.4 mph 91% 0 in 0.00 W/m2
19:19 31.1 °F 28.8 °F 30.06 in SSE 6.9 mph 6 mph 91% 0 in 0.00 W/m2
19:24 31 °F 28.7 °F 30.06 in SSE 8.1 mph 4.4 mph 91% 0 in 0.00 W/m2
19:29 31 °F 28.7 °F 30.06 in SSE 8.1 mph 5.2 mph 91% 0 in 0.00 W/m2
19:34 31 °F 28.7 °F 30.06 in SSE 6 mph 5.3 mph 91% 0 in 0.00 W/m2
19:39 31 °F 28.7 °F 30.06 in South 5.8 mph 4.8 mph 91% 0 in 0.00 W/m2
19:44 31 °F 28.7 °F 30.06 in SSE 8.1 mph 4.4 mph 91% 0 in 0.00 W/m2
19:49 31.2 °F 28.9 °F 30.06 in South 9.2 mph 3.4 mph 91% 0 in 0.00 W/m2
19:54 31.2 °F 28.9 °F 30.06 in South 5.8 mph 4.7 mph 91% 0 in 0.00 W/m2
19:59 31.3 °F 29 °F 30.06 in SSE 9.2 mph 4.9 mph 91% 0 in 0.00 W/m2
20:04 31.3 °F 28.7 °F 30.05 in North 8.1 mph 6 mph 90% 0 in 0.00 W/m2
20:09 31.3 °F 28.7 °F 30.05 in South 7 mph 5.4 mph 90% 0 in 0.00 W/m2
20:14 31.2 °F 28.6 °F 30.05 in South 5.8 mph 4.5 mph 90% 0 in 0.00 W/m2
20:19 31.1 °F 28.5 °F 30.05 in SSE 4.6 mph 3.8 mph 90% 0 in 0.00 W/m2
20:24 31.1 °F 28.5 °F 30.05 in South 5.8 mph 4.4 mph 90% 0 in 0.00 W/m2
20:29 31 °F 28.4 °F 30.05 in South 5.8 mph 3.6 mph 90% 0 in 0.00 W/m2
20:34 31 °F 28.4 °F 30.04 in SSE 5.8 mph 3.4 mph 90% 0 in 0.00 W/m2
20:39 31 °F 28.4 °F 30.04 in North 6.9 mph 4.3 mph 90% 0 in 0.00 W/m2
20:44 31 °F 28.4 °F 30.04 in North 5.8 mph 3.3 mph 90% 0 in 0.00 W/m2
20:49 30.9 °F 28.6 °F 30.04 in South 5.8 mph 3.2 mph 91% 0 in 0.00 W/m2
20:54 30.8 °F 28.5 °F 30.03 in SSE 4.6 mph 2.8 mph 91% 0 in 0.00 W/m2
20:59 30.8 °F 28.5 °F 30.04 in SSE 6.9 mph 4.5 mph 91% 0 in 0.00 W/m2
21:04 30.9 °F 28.6 °F 30.04 in South 6.9 mph 4.1 mph 91% 0 in 0.00 W/m2
21:09 30.9 °F 28.6 °F 30.04 in North 4.6 mph 4.1 mph 91% 0 in 0.00 W/m2
21:14 30.9 °F 28.6 °F 30.04 in SSE 8.1 mph 4.6 mph 91% 0 in 0.00 W/m2
21:19 30.9 °F 28.6 °F 30.04 in North 6.9 mph 5.2 mph 91% 0 in 0.00 W/m2
21:24 31 °F 28.7 °F 30.04 in North 6.9 mph 4.6 mph 91% 0 in 0.00 W/m2
21:29 31 °F 28.7 °F 30.04 in SSE 6.9 mph 4.6 mph 91% 0 in 0.00 W/m2
21:34 31 °F 28.7 °F 30.04 in South 5.8 mph 4.9 mph 91% 0 in 0.00 W/m2
21:39 31 °F 28.7 °F 30.04 in SSE 4.6 mph 4.4 mph 91% 0 in 0.00 W/m2
21:44 30.9 °F 28.6 °F 30.04 in SSE 6.9 mph 3.8 mph 91% 0 in 0.00 W/m2
21:49 31 °F 28.7 °F 30.05 in SSE 5.8 mph 3.4 mph 91% 0 in 0.00 W/m2
21:54 30.9 °F 28.6 °F 30.05 in SSE 6.9 mph 5.5 mph 91% 0 in 0.00 W/m2
21:59 30.8 °F 28.5 °F 30.04 in SSE 5.8 mph 4.8 mph 91% 0 in 0.00 W/m2
22:04 30.7 °F 28.4 °F 30.04 in SSE 6 mph 4.2 mph 91% 0 in 0.00 W/m2
22:09 30.7 °F 28.4 °F 30.04 in SSE 6.9 mph 4.8 mph 91% 0 in 0.00 W/m2
22:14 30.7 °F 28.4 °F 30.03 in South 5 mph 4.7 mph 91% 0 in 0.00 W/m2
22:19 30.8 °F 28.8 °F 30.03 in SSE 5.8 mph 3.9 mph 92% 0 in 0.00 W/m2
22:24 30.8 °F 28.5 °F 30.03 in South 4.6 mph 3.9 mph 91% 0 in 0.00 W/m2
22:29 30.8 °F 28.5 °F 30.03 in SSE 4.6 mph 2.1 mph 91% 0 in 0.00 W/m2
22:34 30.8 °F 28.5 °F 30.03 in SSE 4 mph 3.2 mph 91% 0 in 0.00 W/m2
22:39 30.7 °F 28.4 °F 30.04 in North 4.6 mph 3 mph 91% 0 in 0.00 W/m2
22:44 30.7 °F 28.7 °F 30.04 in South 4.6 mph 3.1 mph 92% 0 in 0.00 W/m2
22:49 30.7 °F 28.7 °F 30.04 in South 3.5 mph 3 mph 92% 0 in 0.00 W/m2
22:54 30.7 °F 28.7 °F 30.04 in South 3.5 mph 2.5 mph 92% 0 in 0.00 W/m2
22:59 30.6 °F 28.6 °F 30.04 in SSE 4.6 mph 3.3 mph 92% 0 in 0.00 W/m2
23:04 30.6 °F 28.6 °F 30.04 in South 4.6 mph 3.6 mph 92% 0 in 0.00 W/m2
23:09 30.6 °F 28.6 °F 30.04 in South 3.5 mph 3.1 mph 92% 0 in 0.00 W/m2
23:14 30.8 °F 28.8 °F 30.04 in South 4.6 mph 3.1 mph 92% 0 in 0.00 W/m2
23:19 31 °F 28.9 °F 30.04 in SSE 4.6 mph 3.8 mph 92% 0 in 0.00 W/m2
23:24 31.3 °F 29.2 °F 30.03 in SSE 4.6 mph 3 mph 92% 0 in 0.00 W/m2
23:29 31.4 °F 29.3 °F 30.03 in SE 4.6 mph 3.4 mph 92% 0 in 0.00 W/m2
23:34 31.5 °F 29.4 °F 30.02 in SE 4 mph 3.8 mph 92% 0 in 0.00 W/m2
23:39 31.7 °F 29.6 °F 30.02 in SSE 3.5 mph 2.4 mph 92% 0 in 0.00 W/m2
23:44 31.8 °F 29.7 °F 30.00 in SE 4.6 mph 3.1 mph 92% 0 in 0.00 W/m2
23:49 31.8 °F 29.7 °F 30.00 in SSE 4.6 mph 2.4 mph 92% 0 in 0.00 W/m2
23:54 31.8 °F 29.7 °F 30.00 in SSE 3.5 mph 2.4 mph 92% 0 in 0.00 W/m2
23:59 31.7 °F 29.6 °F 30.00 in SSE 3.5 mph 2.5 mph 92% 0 in 0.00 W/m2
Bourbonnais, Illinois, USA
Compliments of Weather Underground - 4 mb